Time;durP1;ratioP1;P1;durP2;ratioP2;P2;SDS_P1;SDS_P2;PMS_P1;PMS_P2;Temp;Humidity;BMP_temperature;BMP_pressure;BME280_temperature;BME280_humidity;BME280_pressure;Samples;Min_cycle;Max_cycle;Signal;HPM_P1;HPM_P2
2022/12/24 00:00:31;;;;;;;1999.90;999.90;;;10.60;99.90;;;;;;5053019;28;20108;-75
2022/12/24 00:02:57;;;;;;;1999.90;999.90;;;10.60;99.90;;;;;;5052772;28;20108;-75
2022/12/24 00:05:23;;;;;;;1999.90;999.90;;;10.50;99.90;;;;;;5052459;28;20060;-76
2022/12/24 00:07:49;;;;;;;1999.90;999.90;;;10.60;99.90;;;;;;5052707;28;20128;-74
2022/12/24 00:10:14;;;;;;;1999.90;999.90;;;10.50;99.90;;;;;;5052958;28;20033;-75
2022/12/24 00:12:40;;;;;;;1999.90;999.90;;;10.60;99.90;;;;;;5052188;28;20080;-74
2022/12/24 00:15:06;;;;;;;1999.90;999.90;;;10.60;99.90;;;;;;5052407;28;20104;-75
2022/12/24 00:17:32;;;;;;;1999.90;999.90;;;10.60;99.90;;;;;;5052468;28;20385;-75
2022/12/24 00:19:58;;;;;;;1999.90;999.90;;;10.60;99.90;;;;;;5052076;28;20032;-76
2022/12/24 00:22:24;;;;;;;1999.90;999.90;;;10.60;99.90;;;;;;5052354;28;20013;-74
2022/12/24 00:24:49;;;;;;;1999.90;999.90;;;10.60;99.90;;;;;;5052370;28;20029;-74
2022/12/24 00:27:15;;;;;;;1999.90;999.90;;;10.60;99.90;;;;;;5051981;28;20031;-76
2022/12/24 00:29:41;;;;;;;1999.90;999.90;;;10.60;99.90;;;;;;5052066;28;20032;-74
2022/12/24 00:32:09;;;;;;;1999.90;999.90;;;10.70;99.90;;;;;;5052579;28;20031;-75
2022/12/24 00:34:39;;;;;;;1999.90;999.90;;;10.70;99.90;;;;;;5052236;28;20453;-75
2022/12/24 00:37:05;;;;;;;1999.90;999.90;;;10.70;99.90;;;;;;5051948;28;20088;-74
2022/12/24 00:39:31;;;;;;;1999.90;999.90;;;10.70;99.90;;;;;;5051886;28;20047;-75
2022/12/24 00:41:57;;;;;;;1999.90;999.90;;;10.80;99.90;;;;;;5051903;28;20067;-75
2022/12/24 00:44:22;;;;;;;1999.90;999.90;;;10.70;99.90;;;;;;5052583;28;20484;-76
2022/12/24 00:46:48;;;;;;;1999.90;999.90;;;10.80;99.90;;;;;;5052333;28;20104;-73
2022/12/24 00:49:14;;;;;;;1999.90;999.90;;;10.80;99.90;;;;;;5051532;28;20104;-74
2022/12/24 00:51:40;;;;;;;1999.90;999.90;;;10.80;99.90;;;;;;5051966;28;20056;-75
2022/12/24 00:54:06;;;;;;;1999.90;999.90;;;10.80;99.90;;;;;;5051944;28;20484;-75
2022/12/24 00:56:32;;;;;;;1999.90;999.90;;;10.80;99.90;;;;;;5051885;28;20039;-75
2022/12/24 00:58:58;;;;;;;1999.90;999.90;;;10.90;99.90;;;;;;5051665;28;20029;-75
2022/12/24 01:01:24;;;;;;;1999.90;999.90;;;10.80;99.90;;;;;;5051828;28;20383;-76
2022/12/24 01:03:51;;;;;;;1999.90;999.90;;;10.90;99.90;;;;;;5051707;28;20106;-74
2022/12/24 01:06:19;;;;;;;1999.90;999.90;;;10.90;99.90;;;;;;5051737;28;20036;-76
2022/12/24 01:08:45;;;;;;;1999.90;999.90;;;10.90;99.90;;;;;;5051687;28;20396;-75
2022/12/24 01:11:12;;;;;;;1999.90;999.90;;;10.90;99.90;;;;;;5051391;28;20414;-76
2022/12/24 01:13:38;;;;;;;1999.90;999.90;;;10.90;99.90;;;;;;5051826;28;20025;-76
2022/12/24 01:16:16;;;;;;;1999.90;999.90;;;10.90;99.90;;;;;;5051393;28;20032;-76
2022/12/24 01:18:42;;;;;;;1999.90;999.90;;;11.00;99.90;;;;;;5051808;28;20029;-74
2022/12/24 01:21:07;;;;;;;1999.90;999.90;;;11.00;99.90;;;;;;5050367;28;20025;-76
2022/12/24 01:23:33;;;;;;;1999.90;999.90;;;11.00;99.90;;;;;;5051341;28;20033;-76
2022/12/24 01:26:00;;;;;;;1999.90;999.90;;;11.10;99.90;;;;;;5051410;28;20056;-73
2022/12/24 01:28:26;;;;;;;1999.90;999.90;;;11.10;99.90;;;;;;5051987;28;20029;-74
2022/12/24 01:30:52;;;;;;;1999.90;999.90;;;11.20;99.90;;;;;;5051507;28;20029;-76
2022/12/24 01:33:18;;;;;;;1999.90;999.90;;;11.20;99.90;;;;;;5051420;28;20033;-74
2022/12/24 01:35:44;;;;;;;1999.90;999.90;;;11.20;99.90;;;;;;5051617;28;20057;-75
2022/12/24 01:38:11;;;;;;;1999.90;999.90;;;11.20;99.90;;;;;;5051749;28;20052;-76
2022/12/24 01:43:23;;;;;;;1999.90;999.90;;;11.20;99.90;;;;;;5051707;28;20044;-76
2022/12/24 01:45:52;;;;;;;1999.90;999.90;;;11.20;99.90;;;;;;5051500;28;20059;-76
2022/12/24 01:48:44;;;;;;;1999.90;999.90;;;11.20;99.90;;;;;;5051763;28;20051;-76
2022/12/24 01:51:28;;;;;;;1999.90;999.90;;;11.20;99.90;;;;;;5051011;28;20036;-76
2022/12/24 01:54:01;;;;;;;1999.90;999.90;;;11.10;99.90;;;;;;5051329;28;20060;-76
2022/12/24 01:56:28;;;;;;;1999.90;999.90;;;11.10;99.90;;;;;;5052076;28;20479;-74
2022/12/24 01:58:59;;;;;;;1999.90;999.90;;;11.10;99.90;;;;;;5054995;28;20100;-73
2022/12/24 02:01:25;;;;;;;1999.90;999.90;;;11.10;99.90;;;;;;5054972;28;20025;-76
2022/12/24 02:03:51;;;;;;;1999.90;999.90;;;11.00;99.90;;;;;;5054798;28;20049;-75
2022/12/24 02:06:19;;;;;;;1999.90;999.90;;;11.00;99.90;;;;;;5055049;28;20112;-76
2022/12/24 02:08:45;;;;;;;1999.90;999.90;;;11.00;99.90;;;;;;5054976;28;20078;-73
2022/12/24 02:11:14;;;;;;;1999.90;999.90;;;11.00;99.90;;;;;;5053441;28;20036;-76
2022/12/24 02:13:45;;;;;;;1999.90;999.90;;;11.00;99.90;;;;;;5054644;28;20500;-76
2022/12/24 02:16:32;;;;;;;1999.90;999.90;;;11.00;99.90;;;;;;5055158;28;20028;-74
2022/12/24 02:19:15;;;;;;;1999.90;999.90;;;11.00;99.90;;;;;;5054749;28;20036;-75
2022/12/24 02:22:05;;;;;;;1999.90;999.90;;;11.00;99.90;;;;;;5054447;28;20052;-76
2022/12/24 02:24:59;;;;;;;1999.90;999.90;;;10.90;99.90;;;;;;5054743;28;20086;-76
2022/12/24 02:27:57;;;;;;;1999.90;999.90;;;11.00;99.90;;;;;;5054400;28;20021;-76
2022/12/24 02:30:30;;;;;;;1999.90;999.90;;;11.00;99.90;;;;;;5049771;28;20052;-76
2022/12/24 02:33:29;;;;;;;1999.90;999.90;;;11.00;99.90;;;;;;5054360;28;20028;-76
2022/12/24 02:36:02;;;;;;;1999.90;999.90;;;10.90;99.90;;;;;;5053080;28;20376;-73
2022/12/24 02:38:30;;;;;;;1999.90;999.90;;;11.00;99.90;;;;;;5054400;28;20102;-76
2022/12/24 02:41:06;;;;;;;1999.90;999.90;;;10.90;99.90;;;;;;5054253;28;20049;-75
2022/12/24 02:43:36;;;;;;;1999.90;999.90;;;11.00;99.90;;;;;;5054134;28;20033;-76
2022/12/24 02:46:10;;;;;;;1999.90;999.90;;;11.00;99.90;;;;;;5054119;28;20029;-76
2022/12/24 02:48:37;;;;;;;1999.90;999.90;;;11.00;99.90;;;;;;5053027;28;20546;-73
2022/12/24 02:51:08;;;;;;;1999.90;999.90;;;11.00;99.90;;;;;;5052619;28;20041;-76
2022/12/24 02:53:34;;;;;;;1999.90;999.90;;;11.00;99.90;;;;;;5053033;28;20075;-74
2022/12/24 02:56:13;;;;;;;1999.90;999.90;;;11.00;99.90;;;;;;5053719;28;20395;-76
2022/12/24 02:58:56;;;;;;;1999.90;999.90;;;11.00;99.90;;;;;;5054332;28;20400;-76
2022/12/24 03:01:56;;;;;;;1999.90;999.90;;;10.90;99.90;;;;;;5053876;28;20040;-74
2022/12/24 03:04:43;;;;;;;1999.90;999.90;;;10.90;99.90;;;;;;5054091;28;20041;-73
2022/12/24 03:07:20;;;;;;;1999.90;999.90;;;10.90;99.90;;;;;;5053042;28;20062;-76
2022/12/24 03:09:58;;;;;;;1999.90;999.90;;;11.00;99.90;;;;;;5052655;28;20029;-76
2022/12/24 03:12:32;;;;;;;1999.90;999.90;;;11.00;99.90;;;;;;5053466;28;20033;-74
2022/12/24 03:14:58;;;;;;;;;;;11.00;99.90;;;;;;5053980;28;20025;-76
2022/12/24 03:17:24;;;;;;;1999.90;999.90;;;11.10;99.90;;;;;;5053611;28;20387;-76
2022/12/24 03:19:51;;;;;;;1999.90;999.90;;;11.10;99.90;;;;;;5053429;28;20021;-76
2022/12/24 03:22:17;;;;;;;1999.90;999.90;;;11.10;99.90;;;;;;5052133;28;20447;-76
2022/12/24 03:24:43;;;;;;;1999.90;999.90;;;11.10;99.90;;;;;;5052164;28;20024;-76
2022/12/24 03:27:11;;;;;;;1999.90;999.90;;;11.10;99.90;;;;;;5053063;28;20079;-73
2022/12/24 03:29:39;;;;;;;1999.90;999.90;;;11.10;99.90;;;;;;5053659;28;20060;-74
2022/12/24 03:32:04;;;;;;;1999.90;999.90;;;11.10;99.90;;;;;;5052132;28;20025;-76
2022/12/24 03:34:30;;;;;;;1999.90;999.90;;;11.10;99.90;;;;;;5053374;28;20037;-76
2022/12/24 03:36:56;;;;;;;1999.90;999.90;;;11.10;99.90;;;;;;5053299;28;20035;-73
2022/12/24 03:39:22;;;;;;;1999.90;999.90;;;11.10;99.90;;;;;;5053326;28;20029;-76
2022/12/24 03:41:48;;;;;;;1999.90;999.90;;;11.00;99.90;;;;;;5052735;28;20040;-76
2022/12/24 03:44:13;;;;;;;1999.90;999.90;;;10.90;99.90;;;;;;5053243;28;20186;-76
2022/12/24 03:46:39;;;;;;;1999.90;999.90;;;10.90;99.90;;;;;;5053172;28;20100;-73
2022/12/24 03:49:05;;;;;;;1999.90;999.90;;;10.90;99.90;;;;;;5052848;28;20028;-76
2022/12/24 03:51:32;;;;;;;1999.90;999.90;;;10.90;99.90;;;;;;5052427;28;20446;-73
2022/12/24 03:53:58;;;;;;;1999.90;999.90;;;10.90;99.90;;;;;;5053234;28;20483;-74
2022/12/24 03:56:24;;;;;;;1999.90;999.90;;;10.90;99.90;;;;;;5052869;28;20108;-74
2022/12/24 03:58:50;;;;;;;1999.90;999.90;;;11.00;99.90;;;;;;5052781;28;20021;-75
2022/12/24 04:01:16;;;;;;;1999.90;999.90;;;10.90;99.90;;;;;;5052585;28;20028;-75
2022/12/24 04:03:42;;;;;;;1999.90;999.90;;;10.90;99.90;;;;;;5052720;28;20044;-73
2022/12/24 04:06:13;;;;;;;1999.90;999.90;;;10.90;99.90;;;;;;5052918;28;20040;-76
2022/12/24 04:08:40;;;;;;;1999.90;999.90;;;10.90;99.90;;;;;;5053076;28;20025;-75
2022/12/24 04:11:07;;;;;;;1999.90;999.90;;;10.90;99.90;;;;;;5052529;28;20033;-76
2022/12/24 04:13:34;;;;;;;1999.90;999.90;;;11.00;99.90;;;;;;5052218;28;20032;-76
2022/12/24 04:16:02;;;;;;;1999.90;999.90;;;11.00;99.90;;;;;;5052128;28;20099;-75
2022/12/24 04:18:28;;;;;;;1999.90;999.90;;;11.00;99.90;;;;;;5052665;28;20100;-76
2022/12/24 04:20:54;;;;;;;1999.90;999.90;;;11.10;99.90;;;;;;5051943;28;20016;-75
2022/12/24 04:23:19;;;;;;;1999.90;999.90;;;11.20;99.90;;;;;;5052307;28;20032;-76
2022/12/24 04:25:45;;;;;;;1999.90;999.90;;;11.20;99.90;;;;;;5052049;28;20104;-75
2022/12/24 04:28:11;;;;;;;1999.90;999.90;;;11.20;99.90;;;;;;5052558;28;20036;-76
2022/12/24 04:30:39;;;;;;;1999.90;999.90;;;11.20;99.90;;;;;;5052624;28;20477;-76
2022/12/24 04:33:05;;;;;;;1999.90;999.90;;;11.20;99.90;;;;;;5051906;28;20372;-73
2022/12/24 04:35:31;;;;;;;1999.90;999.90;;;11.30;99.90;;;;;;5051595;28;20024;-76
2022/12/24 04:37:57;;;;;;;1999.90;999.90;;;11.30;99.90;;;;;;5052155;28;20017;-75
2022/12/24 04:40:23;;;;;;;1999.90;999.90;;;11.40;99.90;;;;;;5052236;28;20029;-74
2022/12/24 04:42:49;;;;;;;1999.90;999.90;;;11.40;99.90;;;;;;5051873;28;20021;-75
2022/12/24 04:45:18;;;;;;;1999.90;999.90;;;11.40;99.90;;;;;;5052186;28;20094;-76
2022/12/24 04:47:43;;;;;;;1999.90;999.90;;;11.40;99.90;;;;;;5052069;28;20071;-76
2022/12/24 04:50:09;;;;;;;1999.90;999.90;;;11.40;99.90;;;;;;5052213;28;20472;-76
2022/12/24 04:52:35;;;;;;;1999.90;999.90;;;11.40;99.90;;;;;;5051727;28;20032;-76
2022/12/24 04:55:01;;;;;;;1999.90;999.90;;;11.40;99.90;;;;;;5051674;28;20032;-75
2022/12/24 04:57:27;;;;;;;1999.90;999.90;;;11.40;99.90;;;;;;5051555;28;20080;-75
2022/12/24 04:59:52;;;;;;;1999.90;999.90;;;11.40;99.90;;;;;;5052175;28;20037;-73
2022/12/24 05:02:18;;;;;;;1999.90;999.90;;;11.40;99.90;;;;;;5052189;28;20447;-75
2022/12/24 05:04:44;;;;;;;1999.90;999.90;;;11.40;99.90;;;;;;5050455;28;20048;-75
2022/12/24 05:07:09;;;;;;;1999.90;999.90;;;11.30;99.90;;;;;;5051898;28;20108;-76
2022/12/24 05:09:35;;;;;;;1999.90;999.90;;;11.30;99.90;;;;;;5051607;28;20056;-75
2022/12/24 05:12:01;;;;;;;1999.90;999.90;;;11.30;99.90;;;;;;5050399;28;20074;-74
2022/12/24 05:14:26;;;;;;;1999.90;999.90;;;11.30;99.90;;;;;;5051912;28;20082;-76
2022/12/24 05:16:52;;;;;;;1999.90;999.90;;;11.30;99.90;;;;;;5051844;28;20472;-76
2022/12/24 05:19:17;;;;;;;1999.90;999.90;;;11.30;99.90;;;;;;5051861;28;20025;-76
2022/12/24 05:21:43;;;;;;;1999.90;999.90;;;11.30;99.90;;;;;;5051532;28;20582;-73
2022/12/24 05:26:56;;;;;;;1999.90;999.90;;;11.30;99.90;;;;;;5051458;28;20063;-75
2022/12/24 05:29:23;;;;;;;1999.90;999.90;;;11.20;99.90;;;;;;5051695;28;20031;-76
2022/12/24 05:31:49;;;;;;;1999.90;999.90;;;11.20;99.90;;;;;;5052967;28;20100;-76
2022/12/24 05:34:15;;;;;;;1999.90;999.90;;;11.20;99.90;;;;;;5055773;28;20025;-76
2022/12/24 05:36:41;;;;;;;1999.90;999.90;;;11.20;99.90;;;;;;5055716;28;20480;-75
2022/12/24 05:39:09;;;;;;;1999.90;999.90;;;11.20;99.90;;;;;;5055268;28;20400;-73
2022/12/24 05:41:34;;;;;;;1999.90;999.90;;;11.20;99.90;;;;;;5055177;28;20021;-76
2022/12/24 05:44:00;;;;;;;1999.90;999.90;;;11.20;99.90;;;;;;5055396;28;20199;-76
2022/12/24 05:46:26;;;;;;;1999.90;999.90;;;11.20;99.90;;;;;;5054366;28;20488;-76
2022/12/24 05:48:52;;;;;;;1999.90;999.90;;;11.20;99.90;;;;;;5055414;28;20031;-76
2022/12/24 05:51:21;;;;;;;1999.90;999.90;;;11.20;99.90;;;;;;5055419;28;20064;-76
2022/12/24 05:53:47;;;;;;;1999.90;999.90;;;11.20;99.90;;;;;;5054885;28;20017;-76
2022/12/24 05:56:20;;;;;;;1999.90;999.90;;;11.20;99.90;;;;;;5054471;28;20484;-75
2022/12/24 05:58:45;;;;;;;1999.90;999.90;;;11.20;99.90;;;;;;5055336;28;20013;-75
2022/12/24 06:01:12;;;;;;;1999.90;999.90;;;11.20;99.90;;;;;;5055073;28;20036;-76
2022/12/24 06:03:38;;;;;;;1999.90;999.90;;;11.20;99.90;;;;;;5055113;28;20094;-75
2022/12/24 06:06:06;;;;;;;1999.90;999.90;;;11.20;99.90;;;;;;5055077;28;20507;-75
2022/12/24 06:08:32;;;;;;;1999.90;999.90;;;11.20;99.90;;;;;;5055197;28;20024;-76
2022/12/24 06:11:00;;;;;;;1999.90;999.90;;;11.20;99.90;;;;;;5054855;28;20113;-76
2022/12/24 06:13:26;;;;;;;1999.90;999.90;;;11.20;99.90;;;;;;5054073;28;20025;-76
2022/12/24 06:15:59;;;;;;;1999.90;999.90;;;11.20;99.90;;;;;;5054568;28;20059;-76
2022/12/24 06:18:25;;;;;;;1999.90;999.90;;;11.20;99.90;;;;;;5055137;28;20111;-73
2022/12/24 06:20:55;;;;;;;1999.90;999.90;;;11.20;99.90;;;;;;5054500;28;20096;-75
2022/12/24 06:23:22;;;;;;;1999.90;999.90;;;11.30;99.90;;;;;;5054418;28;20029;-76
2022/12/24 06:25:49;;;;;;;1999.90;999.90;;;11.20;99.90;;;;;;5054229;28;20108;-76
2022/12/24 06:28:15;;;;;;;1999.90;999.90;;;11.20;99.90;;;;;;5054752;28;20083;-76
2022/12/24 06:30:45;;;;;;;1999.90;999.90;;;11.20;99.90;;;;;;5054877;28;20028;-76
2022/12/24 06:33:10;;;;;;;1999.90;999.90;;;11.20;99.90;;;;;;5054423;28;20029;-76
2022/12/24 06:35:36;;;;;;;1999.90;999.90;;;11.20;99.90;;;;;;5049797;28;20121;-76
2022/12/24 06:38:02;;;;;;;1999.90;999.90;;;11.20;99.90;;;;;;5034219;28;20029;-76
2022/12/24 06:40:27;;;;;;;1999.90;999.90;;;11.20;99.90;;;;;;5034815;28;20064;-76
2022/12/24 06:42:53;;;;;;;1999.90;999.90;;;11.20;99.90;;;;;;5033765;28;20032;-76
2022/12/24 06:45:19;;;;;;;1999.90;999.90;;;11.20;99.90;;;;;;5048346;28;20032;-76
2022/12/24 06:47:44;;;;;;;1999.90;999.90;;;11.20;99.90;;;;;;5054065;28;20052;-76
2022/12/24 06:50:10;;;;;;;1999.90;999.90;;;11.30;99.90;;;;;;5054076;28;20108;-76
2022/12/24 06:52:36;;;;;;;1999.90;999.90;;;11.30;99.90;;;;;;5054242;28;20019;-76
2022/12/24 06:55:03;;;;;;;1999.90;999.90;;;11.30;99.90;;;;;;5054351;28;20094;-76
2022/12/24 06:57:30;;;;;;;1999.90;999.90;;;11.30;99.90;;;;;;5053062;28;20060;-76
2022/12/24 06:59:56;;;;;;;1999.90;999.90;;;11.30;99.90;;;;;;5054106;28;20028;-76
2022/12/24 07:02:23;;;;;;;1999.90;999.90;;;11.30;99.90;;;;;;5053918;28;20472;-75
2022/12/24 07:04:48;;;;;;;1999.90;999.90;;;11.30;99.90;;;;;;5053871;28;20049;-76
2022/12/24 07:07:14;;;;;;;1999.90;999.90;;;11.40;99.90;;;;;;5053747;28;20032;-76
2022/12/24 07:09:40;;;;;;;1999.90;999.90;;;11.40;99.90;;;;;;5053694;28;20036;-76
2022/12/24 07:12:05;;;;;;;1999.90;999.90;;;11.40;99.90;;;;;;5053542;28;20074;-76
2022/12/24 07:14:31;;;;;;;1999.90;999.90;;;11.40;99.90;;;;;;5052554;28;20041;-76
2022/12/24 07:16:57;;;;;;;1999.90;999.90;;;11.40;99.90;;;;;;5052967;28;20039;-76
2022/12/24 07:19:23;;;;;;;1999.90;999.90;;;11.30;99.90;;;;;;5053690;28;20095;-76
2022/12/24 07:21:48;;;;;;;1999.90;999.90;;;11.30;99.90;;;;;;5053458;28;20021;-76
2022/12/24 07:24:15;;;;;;;1999.90;999.90;;;11.30;99.90;;;;;;5053535;28;20029;-76
2022/12/24 07:26:40;;;;;;;1999.90;999.90;;;11.40;99.90;;;;;;5053425;28;20021;-76
2022/12/24 07:29:06;;;;;;;1999.90;999.90;;;11.40;99.90;;;;;;5053347;28;20029;-76
2022/12/24 07:31:31;;;;;;;1999.90;999.90;;;11.40;99.90;;;;;;5053343;28;20463;-76
2022/12/24 07:33:57;;;;;;;1999.90;999.90;;;11.40;99.90;;;;;;5053299;28;20029;-76
2022/12/24 07:36:23;;;;;;;1999.90;999.90;;;11.40;99.90;;;;;;5053317;28;20025;-76
2022/12/24 07:38:50;;;;;;;1999.90;999.90;;;11.40;99.90;;;;;;5053584;28;20158;-76
2022/12/24 07:41:15;;;;;;;1999.90;999.90;;;11.40;99.90;;;;;;5053022;28;20040;-76
2022/12/24 07:43:41;;;;;;;1999.90;999.90;;;11.40;99.90;;;;;;5053107;28;20036;-76
2022/12/24 07:46:06;;;;;;;1999.90;999.90;;;11.40;99.90;;;;;;5053195;28;20033;-76
2022/12/24 07:48:32;;;;;;;1999.90;999.90;;;11.40;99.90;;;;;;5053334;28;20033;-76
2022/12/24 07:50:59;;;;;;;1999.90;999.90;;;11.40;99.90;;;;;;5053040;28;20029;-76
2022/12/24 07:53:25;;;;;;;1999.90;999.90;;;11.40;99.90;;;;;;5052972;28;20536;-76
2022/12/24 07:55:51;;;;;;;1999.90;999.90;;;11.40;99.90;;;;;;5052108;28;20044;-73
2022/12/24 07:58:17;;;;;;;1999.90;999.90;;;11.40;99.90;;;;;;5052478;28;20488;-76
2022/12/24 08:00:43;;;;;;;1999.90;999.90;;;11.40;99.90;;;;;;5053100;28;20033;-75
2022/12/24 08:03:19;;;;;;;1999.90;999.90;;;11.50;99.90;;;;;;5052722;28;20041;-76
2022/12/24 08:05:45;;;;;;;1999.90;999.90;;;11.50;99.90;;;;;;5052066;28;20037;-76
2022/12/24 08:08:11;;;;;;;1999.90;999.90;;;11.50;99.90;;;;;;5052923;28;20036;-76
2022/12/24 08:10:40;;;;;;;1999.90;999.90;;;11.50;99.90;;;;;;5052858;28;20488;-76
2022/12/24 08:13:06;;;;;;;1999.90;999.90;;;11.50;99.90;;;;;;5052138;28;20094;-76
2022/12/24 08:15:32;;;;;;;1999.90;999.90;;;11.50;99.90;;;;;;5052646;28;20478;-76
2022/12/24 08:17:58;;;;;;;1999.90;999.90;;;11.50;99.90;;;;;;5052320;28;20036;-76
2022/12/24 08:20:24;;;;;;;1999.90;999.90;;;11.50;99.90;;;;;;5052678;28;20064;-76
2022/12/24 08:22:49;;;;;;;1999.90;999.90;;;11.60;99.90;;;;;;5052619;28;20032;-73
2022/12/24 08:25:15;;;;;;;1999.90;999.90;;;11.60;99.90;;;;;;5050963;28;20392;-76
2022/12/24 08:27:40;;;;;;;1999.90;999.90;;;11.60;99.90;;;;;;5052213;28;20118;-76
2022/12/24 08:30:07;;;;;;;1999.90;999.90;;;11.60;99.90;;;;;;5052404;28;20032;-74
2022/12/24 08:32:33;;;;;;;1999.90;999.90;;;11.60;99.90;;;;;;5052595;28;20025;-76
2022/12/24 08:34:58;;;;;;;1999.90;999.90;;;11.60;99.90;;;;;;5052391;28;20487;-76
2022/12/24 08:37:24;;;;;;;1999.90;999.90;;;11.60;99.90;;;;;;5052174;28;20029;-77
2022/12/24 08:39:50;;;;;;;1999.90;999.90;;;11.60;99.90;;;;;;5052080;28;20446;-76
2022/12/24 08:42:15;;;;;;;1999.90;999.90;;;11.70;99.90;;;;;;5051893;28;20549;-76
2022/12/24 08:44:41;;;;;;;1999.90;999.90;;;11.70;99.90;;;;;;5052233;28;20033;-76
2022/12/24 08:47:06;;;;;;;1999.90;999.90;;;11.70;99.90;;;;;;5051984;28;20404;-76
2022/12/24 08:49:32;;;;;;;1999.90;999.90;;;11.70;99.90;;;;;;5052021;28;20068;-76
2022/12/24 08:51:58;;;;;;;1999.90;999.90;;;11.80;99.90;;;;;;5052028;28;20029;-76
2022/12/24 08:54:24;;;;;;;1999.90;999.90;;;11.80;99.90;;;;;;5052123;28;20109;-76
2022/12/24 08:56:50;;;;;;;1999.90;999.90;;;11.80;99.90;;;;;;5050426;28;20029;-73
2022/12/24 08:59:15;;;;;;;1999.90;999.90;;;11.80;99.90;;;;;;5051416;28;20450;-73
2022/12/24 09:01:41;;;;;;;1999.90;999.90;;;11.80;99.90;;;;;;5051878;28;20025;-76
2022/12/24 09:04:08;;;;;;;1999.90;999.90;;;11.90;99.90;;;;;;5050569;28;20139;-76
2022/12/24 09:06:34;;;;;;;1999.90;999.90;;;11.90;99.90;;;;;;5054645;28;20021;-76
2022/12/24 09:08:59;;;;;;;1999.90;999.90;;;11.90;99.90;;;;;;5056014;28;20040;-76
2022/12/24 09:11:25;;;;;;;1999.90;999.90;;;12.00;99.90;;;;;;5055824;28;20033;-76
2022/12/24 09:13:51;;;;;;;1999.90;999.90;;;12.00;99.90;;;;;;5055859;28;20032;-73
2022/12/24 09:16:16;;;;;;;1999.90;999.90;;;12.00;99.90;;;;;;5056066;28;20063;-76
2022/12/24 09:18:42;;;;;;;1999.90;999.90;;;11.90;99.90;;;;;;5055960;28;20068;-75
2022/12/24 09:21:14;;;;;;;1999.90;999.90;;;12.00;99.90;;;;;;5055690;28;20020;-76
2022/12/24 09:23:41;;;;;;;1999.90;999.90;;;12.00;99.90;;;;;;5055741;28;20032;-75
2022/12/24 09:26:15;;;;;;;1999.90;999.90;;;12.00;99.90;;;;;;5054300;28;20017;-76
2022/12/24 09:28:41;;;;;;;1999.90;999.90;;;12.00;99.90;;;;;;5056040;28;20028;-76
2022/12/24 09:31:08;;;;;;;1999.90;999.90;;;12.00;99.90;;;;;;5054195;28;20029;-76
2022/12/24 09:33:36;;;;;;;1999.90;999.90;;;12.00;99.90;;;;;;5055519;28;20025;-76
2022/12/24 09:36:03;;;;;;;1999.90;999.90;;;12.10;99.90;;;;;;5055621;28;20538;-76
2022/12/24 09:38:29;;;;;;;1999.90;999.90;;;12.10;99.90;;;;;;5055595;28;20028;-76
2022/12/24 09:40:55;;;;;;;1999.90;999.90;;;12.10;99.90;;;;;;5055245;28;20017;-76
2022/12/24 09:43:23;;;;;;;1999.90;999.90;;;12.10;99.90;;;;;;5055545;28;20034;-76
2022/12/24 09:46:03;;;;;;;1999.90;999.90;;;12.10;99.90;;;;;;5055358;28;20047;-76
2022/12/24 09:48:32;;;;;;;1999.90;999.90;;;12.10;99.90;;;;;;5055753;28;20028;-74
2022/12/24 09:51:08;;;;;;;1999.90;999.90;;;12.10;99.90;;;;;;5055437;28;20384;-76
2022/12/24 09:53:46;;;;;;;1999.90;999.90;;;12.10;99.90;;;;;;5055124;28;20025;-76
2022/12/24 09:56:22;;;;;;;1999.90;999.90;;;12.10;99.90;;;;;;5054931;28;20036;-76
2022/12/24 09:59:28;;;;;;;1999.90;999.90;;;12.10;99.90;;;;;;5054596;28;20033;-76
2022/12/24 10:01:54;;;;;;;1999.90;999.90;;;12.10;99.90;;;;;;5054582;28;20120;-76
2022/12/24 10:04:25;;;;;;;1999.90;999.90;;;12.10;99.90;;;;;;5055280;28;20137;-76
2022/12/24 10:07:00;;;;;;;1999.90;999.90;;;12.20;99.90;;;;;;5055159;28;20025;-75
2022/12/24 10:09:57;;;;;;;1999.90;999.90;;;12.20;99.90;;;;;;5054908;28;20102;-75
2022/12/24 10:12:38;;;;;;;1999.90;999.90;;;12.30;99.90;;;;;;5054656;28;20028;-76
2022/12/24 10:15:14;;;;;;;1999.90;999.90;;;12.40;99.90;;;;;;5054774;28;20056;-76
2022/12/24 10:18:01;;;;;;;1999.90;999.90;;;12.50;99.90;;;;;;5053612;28;20096;-73
2022/12/24 10:20:51;;;;;;;1999.90;999.90;;;12.50;99.90;;;;;;5054832;28;20064;-76
2022/12/24 10:23:32;;;;;;;1999.90;999.90;;;12.50;99.90;;;;;;5054649;28;20455;-76
2022/12/24 10:26:23;;;;;;;1999.90;999.90;;;12.60;99.90;;;;;;5054173;28;20033;-76
2022/12/24 10:29:21;;;;;;;1999.90;999.90;;;12.50;99.90;;;;;;5054729;28;20029;-76
2022/12/24 10:32:08;;;;;;;1999.90;999.90;;;12.50;99.90;;;;;;5053317;28;20068;-76
2022/12/24 10:34:45;;;;;;;1999.90;999.90;;;12.50;99.90;;;;;;5054583;28;20028;-76
2022/12/24 10:37:23;;;;;;;1999.90;999.90;;;12.50;99.90;;;;;;5054253;28;20024;-76
2022/12/24 10:39:49;;;;;;;1999.90;999.90;;;12.70;99.90;;;;;;5054386;28;20021;-76
2022/12/24 10:42:17;;;;;;;1999.90;999.90;;;12.80;99.90;;;;;;5054144;28;20082;-76
2022/12/24 10:44:48;;;;;;;1999.90;999.90;;;12.80;99.90;;;;;;5054296;28;20099;-76
2022/12/24 10:47:16;;;;;;;1999.90;999.90;;;12.80;99.90;;;;;;5054288;28;20547;-76
2022/12/24 10:49:51;;;;;;;1999.90;999.90;;;12.80;99.90;;;;;;5054204;28;20029;-76
2022/12/24 10:52:24;;;;;;;1999.90;999.90;;;12.80;99.90;;;;;;5054291;28;20032;-76
2022/12/24 10:55:07;;;;;;;1999.90;999.90;;;12.80;99.90;;;;;;5054229;28;20033;-74
2022/12/24 10:57:33;;;;;;;1999.90;999.90;;;12.80;99.90;;;;;;5053483;28;20033;-76
2022/12/24 11:00:00;;;;;;;1999.90;999.90;;;12.80;99.90;;;;;;5053593;28;20465;-76
2022/12/24 11:02:31;;;;;;;1999.90;999.90;;;12.90;99.90;;;;;;5054182;28;20110;-76
2022/12/24 11:05:00;;;;;;;1999.90;999.90;;;12.80;99.90;;;;;;5053827;28;20045;-75
2022/12/24 11:07:27;;;;;;;1999.90;999.90;;;12.70;99.90;;;;;;5053797;28;20029;-76
2022/12/24 11:10:06;;;;;;;1999.90;999.90;;;12.80;99.90;;;;;;5053847;28;20028;-76
2022/12/24 11:12:35;;;;;;;1999.90;999.90;;;12.80;99.90;;;;;;5053607;28;20547;-76
2022/12/24 11:15:17;;;;;;;1999.90;999.90;;;12.90;99.90;;;;;;5053780;28;20031;-76
2022/12/24 11:18:12;;;;;;;1999.90;999.90;;;12.90;99.90;;;;;;5053645;28;20032;-75
2022/12/24 11:20:38;;;;;;;1999.90;999.90;;;12.90;99.90;;;;;;5053192;28;20079;-76
2022/12/24 11:23:04;;;;;;;1999.90;999.90;;;12.90;99.90;;;;;;5053343;28;20051;-75
2022/12/24 11:25:32;;;;;;;1999.90;999.90;;;12.90;99.90;;;;;;5053515;28;20071;-76
2022/12/24 11:28:21;;;;;;;1999.90;999.90;;;13.00;99.90;;;;;;5053151;28;20029;-76
2022/12/24 11:31:21;;;;;;;1999.90;999.90;;;13.10;99.90;;;;;;5052852;28;20025;-75
2022/12/24 11:33:50;;;;;;;1999.90;999.90;;;13.10;99.90;;;;;;5053469;28;20133;-76
2022/12/24 11:36:22;;;;;;;1999.90;999.90;;;13.00;99.90;;;;;;5052913;28;20370;-75
2022/12/24 11:38:56;;;;;;;1999.90;999.90;;;13.00;99.90;;;;;;5053447;28;20059;-75
2022/12/24 11:41:24;;;;;;;1999.90;999.90;;;13.00;99.90;;;;;;5052730;28;20104;-75
2022/12/24 11:43:57;;;;;;;1999.90;999.90;;;13.00;99.90;;;;;;5053068;28;20120;-76
2022/12/24 11:46:25;;;;;;;;;;;13.00;99.90;;;;;;5053915;28;20221;-74
2022/12/24 11:49:10;;;;;;;1999.90;999.90;;;13.00;99.90;;;;;;5051859;28;19995;-73
2022/12/24 11:51:36;;;;;;;1999.90;999.90;;;12.90;99.90;;;;;;5053054;28;20037;-76
2022/12/24 11:54:28;;;;;;;1999.90;999.90;;;12.90;99.90;;;;;;5053033;28;20105;-76
2022/12/24 11:56:57;;;;;;;1999.90;999.90;;;12.90;99.90;;;;;;5052486;28;20033;-75
2022/12/24 11:59:43;;;;;;;1999.90;999.90;;;12.90;99.90;;;;;;5052768;28;20025;-73
2022/12/24 12:02:21;;;;;;;1999.90;999.90;;;12.80;99.90;;;;;;5052532;28;20024;-76
2022/12/24 12:04:56;;;;;;;1999.90;999.90;;;12.80;99.90;;;;;;5052869;28;20075;-75
2022/12/24 12:07:29;;;;;;;1999.90;999.90;;;12.80;99.90;;;;;;5052765;28;20036;-76
2022/12/24 12:09:55;;;;;;;;;;;12.80;99.90;;;;;;5051667;28;20108;-75
2022/12/24 12:12:25;;;;;;;1999.90;999.90;;;12.90;99.90;;;;;;5052353;28;19908;-75
2022/12/24 12:14:56;;;;;;;1999.90;999.90;;;12.90;99.90;;;;;;5052744;28;20420;-76
2022/12/24 12:17:21;;;;;;;1999.90;999.90;;;12.90;99.90;;;;;;5052634;28;20124;-76